»·PEaware :: AAY114 KLAS-KBZN

AAY114 :: KLAS-KBZN

FLIGHT INFORMATION

Flight Status: Arrived
Operator:
Allegiant Air
More flights by this operator :: More flights under this callsign
Pilot: Henderson P. (1210)
Aircraft: AIRBUS A319
(A319)
More flights by this aircraft type
Origin: KLAS McCarran Intl
United States
Destination: KBZN Gallatin
United States
More flights between these airports :: More routes between these airports
Route: TRALR9 MLF J9 FFU J9 DBS
File this flight plan on PilotEdge
Remarks:
Altitude:
(Current/Filed)
39,000ft
Speed:
(Current/Filed)
451kts
Departed: 18-Oct-18 12:02 PM
Arrived: 18-Oct-18 01:42 PM
Distance/Time
Traveled:
609nm/1:39
Distance/Time
To Go:
Arrived

Flight Plot

Page will automatically refresh every two minutes.

Flight plan parsing failed; only flown route is shown


Map Options




Map Legend


Flown Route
Filed Route
Departure Airport
Arrival Airport
Navaid (VOR, NDB)
Fix

Horizontal Profiles

Position Reports

Time Latitude Longitude Heading Altitude Ground
Speed
18-Oct-18 11:38 36.085475 -115.155068 105 2195ft 0kts
18-Oct-18 11:39 36.085475 -115.155068 105 2195ft 0kts
18-Oct-18 11:40 36.085475 -115.155068 105 2195ft 0kts
18-Oct-18 11:41 36.085475 -115.155068 105 2195ft 0kts
18-Oct-18 11:42 36.085475 -115.155068 105 2195ft 0kts
18-Oct-18 11:43 36.085475 -115.155068 105 2195ft 0kts
18-Oct-18 11:44 36.085475 -115.155068 105 2195ft 0kts
18-Oct-18 11:45 36.085475 -115.155068 105 2195ft 0kts
18-Oct-18 11:46 36.085475 -115.155068 105 2195ft 0kts
18-Oct-18 11:47 36.085475 -115.155068 105 2195ft 0kts
18-Oct-18 11:48 36.085475 -115.155068 105 2195ft 0kts
18-Oct-18 11:49 36.085475 -115.155068 105 2195ft 0kts
18-Oct-18 11:50 36.085624 -115.155611 117 2195ft 2kts
18-Oct-18 11:51 36.086008 -115.155797 206 2195ft 0kts
18-Oct-18 11:52 36.086008 -115.155797 206 2195ft 0kts
18-Oct-18 11:53 36.085600 -115.156046 206 2195ft 4kts
18-Oct-18 11:54 36.085180 -115.156311 207 2195ft 0kts
18-Oct-18 11:55 36.085175 -115.156314 207 2195ft 0kts
18-Oct-18 11:56 36.083469 -115.156058 155 2195ft 15kts
18-Oct-18 11:57 36.081175 -115.154741 154 2195ft 6kts
18-Oct-18 11:58 36.078379 -115.153301 203 2195ft 11kts
18-Oct-18 11:59 36.078028 -115.157331 270 2195ft 12kts
18-Oct-18 12:00 36.078032 -115.162062 270 2195ft 13kts
18-Oct-18 12:01 36.078034 -115.163831 269 2195ft 0kts
18-Oct-18 12:02 36.078034 -115.163831 269 2195ft 0kts
18-Oct-18 12:03 36.078878 -115.164872 26 2195ft 21kts
18-Oct-18 12:04 36.113681 -115.147700 16 3684ft 172kts
18-Oct-18 12:05 36.134922 -115.086703 84 5434ft 248kts
18-Oct-18 12:06 36.143673 -114.994107 82 8646ft 282kts
18-Oct-18 12:07 36.152829 -114.893129 80 11498ft 321kts
18-Oct-18 12:08 36.169997 -114.776749 69 13853ft 357kts
18-Oct-18 12:09 36.190162 -114.653584 86 16596ft 380kts
18-Oct-18 12:10 36.190624 -114.519412 85 19023ft 397kts
18-Oct-18 12:11 36.192358 -114.379795 86 21162ft 414kts
18-Oct-18 12:12 36.198244 -114.235314 69 23089ft 424kts
18-Oct-18 12:13 36.249172 -114.102879 60 24873ft 432kts
18-Oct-18 12:14 36.301755 -113.965933 61 26500ft 447kts
18-Oct-18 12:15 36.356274 -113.825313 61 28073ft 460kts
18-Oct-18 12:16 36.413036 -113.680237 55 29589ft 471kts
18-Oct-18 12:17 36.516233 -113.592085 9 30944ft 460kts
18-Oct-18 12:18 36.641367 -113.556126 10 32522ft 461kts
18-Oct-18 12:19 36.765840 -113.518245 9 33923ft 459kts
18-Oct-18 12:20 36.889806 -113.480806 9 35080ft 459kts
18-Oct-18 12:21 37.014088 -113.443165 9 36072ft 459kts
18-Oct-18 12:22 37.138239 -113.405384 9 36887ft 459kts
18-Oct-18 12:23 37.262548 -113.367407 9 37565ft 459kts
18-Oct-18 12:24 37.386233 -113.329523 9 38130ft 459kts
18-Oct-18 12:25 37.510628 -113.289560 10 38578ft 459kts
18-Oct-18 12:26 37.634668 -113.249752 10 38942ft 459kts
18-Oct-18 12:27 37.758439 -113.209682 10 39218ft 460kts
18-Oct-18 12:28 37.882675 -113.169433 10 39336ft 463kts
18-Oct-18 12:29 38.008026 -113.128612 10 39342ft 467kts
18-Oct-18 12:30 38.131915 -113.088185 10 39293ft 450kts
18-Oct-18 12:31 38.252802 -113.048612 10 39286ft 451kts
18-Oct-18 12:32 38.375084 -113.005408 18 39291ft 461kts
18-Oct-18 12:33 38.493466 -112.940788 20 39376ft 465kts
18-Oct-18 12:34 38.612914 -112.876049 19 39376ft 469kts
18-Oct-18 12:35 38.713026 -112.821205 20 39384ft 471kts
18-Oct-18 12:36 38.851771 -112.745108 20 39351ft 461kts
18-Oct-18 12:37 38.950197 -112.690926 20 39351ft 461kts
18-Oct-18 12:38 39.087340 -112.615162 20 39360ft 460kts
18-Oct-18 12:39 39.185410 -112.560737 21 39364ft 460kts
18-Oct-18 12:40 39.302965 -112.495356 21 39381ft 460kts
18-Oct-18 12:41 39.440214 -112.418684 21 39385ft 459kts
18-Oct-18 12:42 39.537849 -112.363950 21 39390ft 459kts
18-Oct-18 12:43 39.655026 -112.298008 22 39381ft 460kts
18-Oct-18 12:44 39.772280 -112.231834 22 39376ft 460kts
18-Oct-18 12:45 39.889877 -112.165104 22 39381ft 460kts
18-Oct-18 12:46 40.007295 -112.098180 22 39386ft 460kts
18-Oct-18 12:47 40.124105 -112.029172 22 39388ft 461kts
18-Oct-18 12:48 40.241172 -111.960538 22 39381ft 461kts
18-Oct-18 12:49 40.365957 -111.945915 354 39347ft 455kts
18-Oct-18 12:50 40.492362 -111.956192 356 39379ft 456kts
18-Oct-18 12:51 40.614570 -111.964812 355 39378ft 457kts
18-Oct-18 12:52 40.741761 -111.973936 355 39368ft 457kts
18-Oct-18 12:53 40.868642 -111.983180 356 39367ft 455kts
18-Oct-18 12:54 40.995033 -111.991478 356 39371ft 453kts
18-Oct-18 12:55 41.120664 -111.999987 356 39375ft 451kts
18-Oct-18 12:56 41.245478 -112.008333 357 39367ft 447kts
18-Oct-18 12:57 41.369175 -112.016738 357 39372ft 441kts
18-Oct-18 12:58 41.491076 -112.025017 357 39315ft 439kts
18-Oct-18 12:59 41.613514 -112.033365 357 39297ft 440kts
18-Oct-18 13:00 41.735866 -112.041733 357 39305ft 440kts
18-Oct-18 13:01 41.857878 -112.050127 357 39308ft 440kts
18-Oct-18 13:02 41.980146 -112.058521 357 39314ft 440kts
18-Oct-18 13:03 42.102797 -112.067025 357 39322ft 440kts
18-Oct-18 13:04 42.224959 -112.075501 357 39331ft 440kts
18-Oct-18 13:05 42.346965 -112.084042 357 39334ft 439kts
18-Oct-18 13:06 42.469158 -112.092567 357 39337ft 439kts
18-Oct-18 13:07 42.590984 -112.101170 357 39355ft 438kts
18-Oct-18 13:08 42.713080 -112.109762 357 39354ft 438kts
18-Oct-18 13:09 42.834341 -112.118333 357 39355ft 437kts
18-Oct-18 13:10 42.955792 -112.126997 357 39358ft 435kts
18-Oct-18 13:11 43.076743 -112.135604 357 39356ft 435kts
18-Oct-18 13:12 43.197641 -112.144284 357 39337ft 434kts
18-Oct-18 13:13 43.318256 -112.152960 357 39329ft 434kts
18-Oct-18 13:14 43.438868 -112.161683 357 39319ft 434kts
18-Oct-18 13:15 43.559282 -112.170417 357 39309ft 434kts
18-Oct-18 13:16 43.679893 -112.179192 357 39312ft 434kts
18-Oct-18 13:17 43.800569 -112.188036 357 39313ft 434kts
18-Oct-18 13:18 43.921225 -112.196889 357 39317ft 433kts
18-Oct-18 13:19 44.041613 -112.205793 357 39320ft 433kts
18-Oct-18 13:20 44.156907 -112.169528 24 38888ft 429kts
18-Oct-18 13:21 44.266028 -112.100992 22 36400ft 431kts
18-Oct-18 13:22 44.376075 -112.033961 23 33717ft 429kts
18-Oct-18 13:23 44.484875 -111.967025 23 30961ft 426kts
18-Oct-18 13:24 44.591979 -111.900769 23 28442ft 415kts
18-Oct-18 13:25 44.696344 -111.836150 23 25965ft 403kts
18-Oct-18 13:26 44.797431 -111.773180 23 23588ft 391kts
18-Oct-18 13:27 44.895355 -111.712003 23 21356ft 380kts
18-Oct-18 13:28 44.990570 -111.652283 23 19276ft 370kts
18-Oct-18 13:29 45.083405 -111.593822 23 17208ft 359kts
18-Oct-18 13:30 45.173966 -111.536567 23 15292ft 354kts
18-Oct-18 13:31 45.263280 -111.479980 22 14039ft 350kts
18-Oct-18 13:32 45.352219 -111.423408 22 14053ft 350kts
18-Oct-18 13:33 45.436273 -111.369684 22 14039ft 303kts
18-Oct-18 13:34 45.508461 -111.323449 22 13420ft 298kts
18-Oct-18 13:35 45.580041 -111.277595 22 12011ft 291kts
18-Oct-18 13:36 45.653262 -111.230395 22 11488ft 277kts
18-Oct-18 13:37 45.718946 -111.198468 343 10691ft 236kts
18-Oct-18 13:38 45.768151 -111.256503 314 9353ft 221kts
18-Oct-18 13:39 45.812449 -111.315979 315 8136ft 205kts
18-Oct-18 13:40 45.860722 -111.302675 48 6856ft 207kts
18-Oct-18 13:41 45.845540 -111.247222 137 6342ft 159kts
18-Oct-18 13:42 45.816686 -111.206318 135 5298ft 137kts
18-Oct-18 13:43 45.789400 -111.168359 135 4559ft 135kts
18-Oct-18 13:44 45.775583 -111.149082 148 4485ft 17kts
18-Oct-18 13:45 45.774647 -111.151868 315 4485ft 8kts
18-Oct-18 13:46 45.777370 -111.155687 314 4485ft 17kts
18-Oct-18 13:47 45.778387 -111.159147 253 4485ft 6kts
18-Oct-18 13:48 45.778221 -111.159760 247 4485ft 0kts
18-Oct-18 13:49 45.778221 -111.159760 247 4485ft 0kts
18-Oct-18 13:50 45.778221 -111.159760 247 4485ft 0kts
18-Oct-18 13:51 45.778221 -111.159760 247 4485ft 0kts
18-Oct-18 13:52 45.778221 -111.159760 247 4485ft 0kts
18-Oct-18 13:53 45.778221 -111.159760 247 4485ft 0kts
18-Oct-18 13:54 45.778221 -111.159760 247 4485ft 0kts
18-Oct-18 13:55 45.778221 -111.159760 247 4485ft 0kts
18-Oct-18 13:56 45.778221 -111.159760 247 4485ft 0kts
18-Oct-18 13:57 45.778221 -111.159760 247 4485ft 0kts
18-Oct-18 13:58 45.778221 -111.159760 247 4485ft 0kts

Navigation Log

Ident Type
Flight plan parsing failed, navigation log unavailable